North Tazewell, VA (24630)

06:19 PM EDT วัน ตุลาคม 22, 2014 (GMT -0400)
MesoWest T54A Tazewell VA US USARRAY | Change Station
CLOSE
Current Station
Personal Weather Stations
Location: Burkes Garden, VA
Elevation: 2794 ft
Nearby Weather Stations

Elev 2794 ft 37.06 °N, 81.58 °W | Updated 39 minutes ago

มีเมฆคลุมไปทั่ว
มีเมฆคลุมไปทั่ว
42 ฟาเรนไฮน์
Feels Like 36 ฟาเรนไฮน์
N
11
ลม ความผันแปร ลม from ทางทิศเหนือ
Gusts 18.0 mph

วันนี้
High -- | Low -- ฟาเรนไฮน์
--% Chance of Precip.
Yesterday
High -- | Low -- ฟาเรนไฮน์
Precip. -- นิ้ว
7:40 AM 6:39 PM
เดือนเสี้ยว, 1% visible
ความดัน 30.18 นิ้ว
ทัศนวิสัย 7.0 ไมล์
เมฆ มีเมฆคลุมเป็นส่วนใหญ่ 1000 ft
มีเมฆคลุมไปทั่ว 1800 ft
ลมหนาว 36 ฟาเรนไฮน์
อุณหภูมิที่อากาศอาจจับตัวเป็นหยาดน้ำค้าง 37 ฟาเรนไฮน์
ความชื้น 80%
Rainfall -999.00 นิ้ว
Snow Depth Not available.
UV 0 out of 12
Pollen .30 out of 12
Air Quality Not available.
Flu Activity Local Activity
METAR KJFZ 222155Z AUTO 33005KT 7SM BKN010 OVC018 07/06 A3018 RMK AO2 T00720058

More Conditions Fewer Conditions

ความดัน 30.18 นิ้ว
ทัศนวิสัย 7.0 ไมล์
เมฆ มีเมฆคลุมเป็นส่วนใหญ่ 1000 ft
มีเมฆคลุมไปทั่ว 1800 ft
ลมหนาว 36 ฟาเรนไฮน์
อุณหภูมิที่อากาศอาจจับตัวเป็นหยาดน้ำค้าง 37 ฟาเรนไฮน์
ความชื้น 80%
Rainfall -999.00 นิ้ว
Snow Depth Not available.
UV 0 out of 12
Pollen .30 out of 12
Air Quality Not available.
Flu Activity Local Activity
METAR KJFZ 222155Z AUTO 33005KT 7SM BKN010 OVC018 07/06 A3018 RMK AO2 T00720058

More Conditions Fewer Conditions

10-Day Weather Forecast

Almanac

ดาราศาสตร์

Oct. 22, 2014 Rise Set
Actual Time 7:40 AM EDT 6:39 PM EDT
Civil Twilight 7:13 AM EDT 7:06 PM EDT
Nautical Twilight 6:43 AM EDT 7:36 PM EDT
Astronomical Twilight 6:13 AM EDT 8:06 PM EDT
Moon 6:22 AM EDT 6:04 PM EDT
Length Of Visible Light 11h 52m
ความยาวของวัน
10h 59m
Tomorrow will be 2m 13s shorter.
เดือนเสี้ยว, 1% of the Moon is Illuminated
วันนี้
เดือนเสี้ยว
Oct 23
New
Oct 30
ไตรมาสแรก
Nov 6
พระจันทร์เต็มดวง
Nov 14
ไตรมาสล่าสุด

Today's Extremes

State Highs State Lows

Community

WunderPhotos

Upload Photos

1,764,054 photos uploaded!

WunderBlogs® & News

Nearby

Snow Depth

Station Depth Elevation
No new snow has been reported.

Earthquake Activity

City Distance Mag. Time & Date
No recent earthquake activity has been reported nearby.
Minimum magnitude displayed is 2.5.

Coastal Water Temperatures

สถานที่ อุณหภูมิ
No Stations Reporting

Nearby Weather Stations